• Join FlightAware (Why Join?)
  • Login
  • US Flag 
07:33AM EDT


 

Airport Tracker/Info


-or-


 

Live Flight TrackerFlight Track Log ✈ N560RP ✈ 03-May-2013 ✈ KSTL - KDPA

Flight Track Log - Related Links

Times and Time Zones

All times are in EDT time to prevent confusion due to time zone crossing. See the N560RP flight status page for this flight to view local times or setup timezone preferences in your user account.

Time Position Orientation Groundspeed Altitude Reporting Facility
EDT Latitude Longitude Course Direction KTS MPH feet Rate Location/Type
07:45PM 38.7972 -90.4306 340° North 182 209 4,000  Level Kansas City Center
07:47PM 38.8644 -90.4239 North 239 275 6,200 2,340 Climbing Kansas City Center
07:48PM 38.9439 -90.3947 16° North 278 320 8,800 2,760 Climbing Kansas City Center
07:49PM 39.0222 -90.3656 16° North 291 335 12,000 3,060 Climbing Kansas City Center
07:50PM 39.0897 -90.3083 33° Northeast 290 334 15,200 3,420 Climbing Kansas City Center
07:51PM 39.1686 -90.2406 34° Northeast 286 329 19,100 3,120 Climbing Kansas City Center
07:52PM 39.2350 -90.1869 32° Northeast 283 326 21,700 1,800 Climbing Kansas City Center
07:53PM 39.3069 -90.1261 33° Northeast 304 350 22,900 1,200 Climbing Kansas City Center
07:54PM 39.3903 -90.0567 33° Northeast 347 399 24,200 1,920 Climbing Kansas City Center
07:55PM 39.4683 -89.9897 34° Northeast 337 388 26,900 1,320 Climbing Kansas City Center
07:56PM 39.5511 -89.9203 33° Northeast 352 405 27,000  Climbing Kansas City Center
07:57PM 39.6647 -89.8264 32° Northeast 398 458 27,000  Level Kansas City Center
07:58PM 39.7622 -89.7433 33° Northeast 418 481 27,000  Level Kansas City Center
07:59PM 39.8619 -89.6597 33° Northeast 426 490 27,000  Level Kansas City Center
08:00PM 39.9728 -89.5519 37° Northeast 421 484 27,000  Level Chicago Center
08:01PM 40.0667 -89.4644 35° Northeast 417 480 27,000  Level Chicago Center
08:02PM 40.1614 -89.3728 36° Northeast 424 488 27,000 -480 Level Chicago Center
08:03PM 40.2556 -89.2808 37° Northeast 425 489 26,100 -1,620 Descending Chicago Center
08:04PM 40.3803 -89.2142 22° Northeast 409 471 23,700 -2,280 Descending Chicago Center
08:05PM 40.4869 -89.1681 18° North 408 470 21,400 -2,280 Descending Chicago Center
08:06PM 40.5864 -89.1172 21° North 391 450 19,100 -2,280 Descending Chicago Center
08:07PM 40.6842 -89.0719 19° North 377 434 16,700 -2,100 Descending Chicago Center
08:08PM 40.7839 -89.0603 North 366 421 14,800 -1,560 Descending Chicago Center
08:09PM 40.8800 -89.0494 North 356 410 13,500 -1,440 Descending Chicago Center
08:10PM 40.9856 -88.9889 23° Northeast 349 402 11,900 -1,440 Descending Chicago Center
08:11PM 41.0728 -88.9331 26° Northeast 334 384 10,600 -1,020 Descending Chicago Center
08:12PM 41.1592 -88.8858 22° Northeast 334 384 9,800 -420 Descending Chicago Center
08:13PM 41.2389 -88.8356 25° Northeast 324 373 9,800  Level Chicago Center
08:15PM 41.3222 -88.7889 23° Northeast 326 375 9,900 -780 Climbing Chicago Center
08:16PM 41.3978 -88.7425 25° Northeast 301 346 8,300 -1,560 Descending Chicago Center
08:17PM 41.4758 -88.6964 24° Northeast 306 352 6,700 -1,620 Descending Chicago Center
08:18PM 41.5500 -88.6522 24° Northeast 297 342 5,000 -840 Descending Chicago Center
08:19PM 41.6256 -88.5897 32° Northeast 272 313 5,000 -240 Level Chicago Center
08:20PM 41.6619 -88.5053 60° Northeast 264 304 4,600 -540 Descending Chicago Center
08:21PM 41.6939 -88.4222 63° Northeast 257 296 4,000 -660 Descending Chicago Center
08:22PM 41.7264 -88.3436 61° Northeast 250 288 3,300 -540 Descending Chicago Center
08:23PM 41.7606 -88.2994 44° Northeast 203 234 2,900 -360 Descending Chicago Center
08:24PM 41.8083 -88.2822 15° North 186 214 2,600 -660 Descending Chicago Center
08:25PM 41.8558 -88.2672 13° North 154 177 1,600 -780 Descending Chicago Center
08:26PM 41.8803 -88.2583 15° North 114 131 1,100 -540 Descending Chicago Center
08:28PM 41.9000 -88.2333 48° Northeast  Level FlightAware Approximate
08:35PM 41.9071 -88.2480 48° Northeast  Level Estimated